sensor_id;sensor_type;location;lat;lon;timestamp;pressure;altitude;pressure_sealevel;temperature;humidity
23281;BME280;11809;56.390;-3.266;2022-12-15T00:02:42;100489.38;;;11.72;50.48
23281;BME280;11809;56.390;-3.266;2022-12-15T00:05:28;100499.91;;;11.72;50.77
23281;BME280;11809;56.390;-3.266;2022-12-15T00:08:15;100497.47;;;11.68;50.71
23281;BME280;11809;56.390;-3.266;2022-12-15T00:11:02;100494.03;;;11.66;50.91
23281;BME280;11809;56.390;-3.266;2022-12-15T00:13:47;100499.47;;;11.63;51.01
23281;BME280;11809;56.390;-3.266;2022-12-15T00:16:33;100511.81;;;11.61;51.14
23281;BME280;11809;56.390;-3.266;2022-12-15T00:19:18;100498.84;;;11.57;51.15
23281;BME280;11809;56.390;-3.266;2022-12-15T00:22:04;100507.66;;;11.56;51.21
23281;BME280;11809;56.390;-3.266;2022-12-15T00:24:50;100499.03;;;11.53;51.23
23281;BME280;11809;56.390;-3.266;2022-12-15T00:27:36;100503.44;;;11.52;51.24
23281;BME280;11809;56.390;-3.266;2022-12-15T00:30:21;100501.75;;;11.51;51.51
23281;BME280;11809;56.390;-3.266;2022-12-15T00:33:08;100494.91;;;11.47;51.26
23281;BME280;11809;56.390;-3.266;2022-12-15T00:35:57;100486.16;;;11.47;51.30
23281;BME280;11809;56.390;-3.266;2022-12-15T00:38:44;100494.13;;;11.45;51.50
23281;BME280;11809;56.390;-3.266;2022-12-15T00:41:13;100501.25;;;11.43;51.61
23281;BME280;11809;56.390;-3.266;2022-12-15T00:43:41;100495.22;;;11.41;51.64
23281;BME280;11809;56.390;-3.266;2022-12-15T00:46:08;100501.47;;;11.39;51.76
23281;BME280;11809;56.390;-3.266;2022-12-15T00:48:54;100505.88;;;11.38;51.64
23281;BME280;11809;56.390;-3.266;2022-12-15T00:51:21;100506.00;;;11.35;51.86
23281;BME280;11809;56.390;-3.266;2022-12-15T00:54:07;100502.50;;;11.35;51.63
23281;BME280;11809;56.390;-3.266;2022-12-15T00:56:53;100511.41;;;11.32;51.84
23281;BME280;11809;56.390;-3.266;2022-12-15T00:59:38;100508.91;;;11.29;52.00
23281;BME280;11809;56.390;-3.266;2022-12-15T01:02:24;100516.00;;;11.27;51.96
23281;BME280;11809;56.390;-3.266;2022-12-15T01:05:10;100508.19;;;11.26;51.87
23281;BME280;11809;56.390;-3.266;2022-12-15T01:07:58;100509.97;;;11.25;52.13
23281;BME280;11809;56.390;-3.266;2022-12-15T01:10:44;100513.50;;;11.24;52.15
23281;BME280;11809;56.390;-3.266;2022-12-15T01:13:29;100522.31;;;11.23;52.09
23281;BME280;11809;56.390;-3.266;2022-12-15T01:16:15;100535.56;;;11.22;52.44
23281;BME280;11809;56.390;-3.266;2022-12-15T01:19:01;100540.09;;;11.18;52.39
23281;BME280;11809;56.390;-3.266;2022-12-15T01:21:46;100543.56;;;11.19;52.52
23281;BME280;11809;56.390;-3.266;2022-12-15T01:24:15;100541.94;;;11.16;52.64
23281;BME280;11809;56.390;-3.266;2022-12-15T01:26:42;100540.22;;;11.15;52.41
23281;BME280;11809;56.390;-3.266;2022-12-15T01:29:09;100520.97;;;11.15;52.45
23281;BME280;11809;56.390;-3.266;2022-12-15T01:31:35;100537.59;;;11.15;52.74
23281;BME280;11809;56.390;-3.266;2022-12-15T01:34:02;100538.56;;;11.13;52.66
23281;BME280;11809;56.390;-3.266;2022-12-15T01:36:29;100537.75;;;11.12;52.74
23281;BME280;11809;56.390;-3.266;2022-12-15T01:38:56;100538.66;;;11.11;52.88
23281;BME280;11809;56.390;-3.266;2022-12-15T01:41:23;100540.44;;;11.11;52.88
23281;BME280;11809;56.390;-3.266;2022-12-15T01:43:50;100542.16;;;11.12;52.96
23281;BME280;11809;56.390;-3.266;2022-12-15T01:46:18;100553.56;;;11.11;52.84
23281;BME280;11809;56.390;-3.266;2022-12-15T01:51:48;100539.66;;;11.09;53.07
23281;BME280;11809;56.390;-3.266;2022-12-15T01:56:54;100544.03;;;11.08;53.00
23281;BME280;11809;56.390;-3.266;2022-12-15T01:59:30;100549.38;;;11.07;52.80
23281;BME280;11809;56.390;-3.266;2022-12-15T02:01:58;100552.84;;;11.07;53.04
23281;BME280;11809;56.390;-3.266;2022-12-15T02:04:26;100559.06;;;11.06;52.98
23281;BME280;11809;56.390;-3.266;2022-12-15T02:06:53;100565.22;;;11.05;52.96
23281;BME280;11809;56.390;-3.266;2022-12-15T02:09:21;100567.94;;;11.04;53.24
23281;BME280;11809;56.390;-3.266;2022-12-15T02:20:45;100562.66;;;11.04;53.24
23281;BME280;11809;56.390;-3.266;2022-12-15T02:31:51;100559.09;;;11.05;53.51
23281;BME280;11809;56.390;-3.266;2022-12-15T02:37:15;100545.16;;;11.03;53.50
23281;BME280;11809;56.390;-3.266;2022-12-15T02:39:43;100552.16;;;11.04;53.09
23281;BME280;11809;56.390;-3.266;2022-12-15T02:42:10;100549.53;;;11.04;53.47
23281;BME280;11809;56.390;-3.266;2022-12-15T02:44:43;100547.66;;;11.06;53.54
23281;BME280;11809;56.390;-3.266;2022-12-15T02:58:30;100536.25;;;11.07;53.49
23281;BME280;11809;56.390;-3.266;2022-12-15T03:01:05;100541.50;;;11.07;53.35
23281;BME280;11809;56.390;-3.266;2022-12-15T03:03:36;100544.97;;;11.07;53.27
23281;BME280;11809;56.390;-3.266;2022-12-15T03:06:05;100547.59;;;11.07;53.34
23281;BME280;11809;56.390;-3.266;2022-12-15T03:08:32;100551.16;;;11.06;53.31
23281;BME280;11809;56.390;-3.266;2022-12-15T03:10:59;100552.84;;;11.07;53.58
23281;BME280;11809;56.390;-3.266;2022-12-15T03:13:27;100561.59;;;11.08;53.33
23281;BME280;11809;56.390;-3.266;2022-12-15T03:15:54;100557.19;;;11.08;53.38
23281;BME280;11809;56.390;-3.266;2022-12-15T03:18:23;100560.69;;;11.09;53.40
23281;BME280;11809;56.390;-3.266;2022-12-15T03:20:50;100561.56;;;11.09;53.46
23281;BME280;11809;56.390;-3.266;2022-12-15T03:23:17;100562.31;;;11.11;53.26
23281;BME280;11809;56.390;-3.266;2022-12-15T03:25:44;100565.81;;;11.12;53.26
23281;BME280;11809;56.390;-3.266;2022-12-15T03:28:15;100564.09;;;11.11;53.37
23281;BME280;11809;56.390;-3.266;2022-12-15T03:30:42;100568.38;;;11.13;53.44
23281;BME280;11809;56.390;-3.266;2022-12-15T03:33:10;100557.84;;;11.13;53.36
23281;BME280;11809;56.390;-3.266;2022-12-15T03:35:37;100570.09;;;11.14;53.29
23281;BME280;11809;56.390;-3.266;2022-12-15T03:38:03;100577.03;;;11.15;53.43
23281;BME280;11809;56.390;-3.266;2022-12-15T03:40:30;100580.47;;;11.17;53.29
23281;BME280;11809;56.390;-3.266;2022-12-15T03:42:57;100583.94;;;11.18;53.21
23281;BME280;11809;56.390;-3.266;2022-12-15T03:45:27;100577.78;;;11.19;53.22
23281;BME280;11809;56.390;-3.266;2022-12-15T03:47:55;100585.63;;;11.20;53.50
23281;BME280;11809;56.390;-3.266;2022-12-15T03:50:25;100587.31;;;11.21;53.41
23281;BME280;11809;56.390;-3.266;2022-12-15T03:52:55;100594.28;;;11.22;53.26
23281;BME280;11809;56.390;-3.266;2022-12-15T03:55:23;100600.44;;;11.21;53.38
23281;BME280;11809;56.390;-3.266;2022-12-15T03:57:51;100603.94;;;11.22;53.22
23281;BME280;11809;56.390;-3.266;2022-12-15T04:00:19;100611.75;;;11.23;53.36
23281;BME280;11809;56.390;-3.266;2022-12-15T04:02:47;100620.47;;;11.25;53.29
23281;BME280;11809;56.390;-3.266;2022-12-15T04:07:45;100613.34;;;11.27;53.39
23281;BME280;11809;56.390;-3.266;2022-12-15T04:10:12;100620.34;;;11.28;53.27
23281;BME280;11809;56.390;-3.266;2022-12-15T04:12:39;100613.34;;;11.27;53.42
23281;BME280;11809;56.390;-3.266;2022-12-15T04:15:07;100616.75;;;11.29;53.24
23281;BME280;11809;56.390;-3.266;2022-12-15T04:17:34;100618.47;;;11.30;53.11
23281;BME280;11809;56.390;-3.266;2022-12-15T04:20:02;100619.34;;;11.31;53.14
23281;BME280;11809;56.390;-3.266;2022-12-15T04:22:41;100621.03;;;11.32;53.47
23281;BME280;11809;56.390;-3.266;2022-12-15T04:25:11;100620.13;;;11.33;53.51
23281;BME280;11809;56.390;-3.266;2022-12-15T04:27:56;100628.94;;;11.32;53.15
23281;BME280;11809;56.390;-3.266;2022-12-15T04:30:49;100621.69;;;11.17;52.79
23281;BME280;11809;56.390;-3.266;2022-12-15T04:33:36;100625.69;;;11.05;52.70
23281;BME280;11809;56.390;-3.266;2022-12-15T04:36:25;100624.25;;;10.98;52.85
23281;BME280;11809;56.390;-3.266;2022-12-15T04:39:11;100618.34;;;10.93;52.76
23281;BME280;11809;56.390;-3.266;2022-12-15T04:41:59;100615.06;;;10.88;52.85
23281;BME280;11809;56.390;-3.266;2022-12-15T04:44:47;100619.50;;;10.86;53.22
23281;BME280;11809;56.390;-3.266;2022-12-15T04:47:34;100620.56;;;10.82;53.38
23281;BME280;11809;56.390;-3.266;2022-12-15T04:50:19;100610.16;;;10.79;53.31
23281;BME280;11809;56.390;-3.266;2022-12-15T04:53:13;100610.25;;;10.77;53.36
23281;BME280;11809;56.390;-3.266;2022-12-15T04:55:59;100612.91;;;10.76;53.29
23281;BME280;11809;56.390;-3.266;2022-12-15T04:58:46;100610.38;;;10.74;53.66
23281;BME280;11809;56.390;-3.266;2022-12-15T05:01:33;100619.22;;;10.72;53.62
23281;BME280;11809;56.390;-3.266;2022-12-15T05:04:18;100620.13;;;10.71;53.48
23281;BME280;11809;56.390;-3.266;2022-12-15T05:07:04;100626.38;;;10.68;53.87
23281;BME280;11809;56.390;-3.266;2022-12-15T05:09:49;100628.16;;;10.68;53.89
23281;BME280;11809;56.390;-3.266;2022-12-15T05:12:41;100645.75;;;10.66;53.78
23281;BME280;11809;56.390;-3.266;2022-12-15T05:15:27;100649.28;;;10.65;54.00
23281;BME280;11809;56.390;-3.266;2022-12-15T05:18:12;100647.66;;;10.62;53.78
23281;BME280;11809;56.390;-3.266;2022-12-15T05:20:58;100645.88;;;10.63;54.00
23281;BME280;11809;56.390;-3.266;2022-12-15T05:23:43;100652.06;;;10.62;53.98
23281;BME280;11809;56.390;-3.266;2022-12-15T05:26:29;100652.97;;;10.61;54.26
23281;BME280;11809;56.390;-3.266;2022-12-15T05:29:18;100652.13;;;10.60;54.03
23281;BME280;11809;56.390;-3.266;2022-12-15T05:32:03;100646.00;;;10.60;54.09
23281;BME280;11809;56.390;-3.266;2022-12-15T05:34:32;100653.00;;;10.59;54.10
23281;BME280;11809;56.390;-3.266;2022-12-15T05:37:00;100660.97;;;10.58;54.38
23281;BME280;11809;56.390;-3.266;2022-12-15T05:39:28;100666.22;;;10.58;54.49
23281;BME280;11809;56.390;-3.266;2022-12-15T05:41:56;100664.50;;;10.57;54.49
23281;BME280;11809;56.390;-3.266;2022-12-15T05:44:24;100664.50;;;10.57;54.31
23281;BME280;11809;56.390;-3.266;2022-12-15T05:46:51;100668.06;;;10.56;54.54
23281;BME280;11809;56.390;-3.266;2022-12-15T05:49:19;100669.84;;;10.55;54.57
23281;BME280;11809;56.390;-3.266;2022-12-15T05:51:46;100681.22;;;10.56;54.68
23281;BME280;11809;56.390;-3.266;2022-12-15T05:54:15;100685.69;;;10.54;54.60
23281;BME280;11809;56.390;-3.266;2022-12-15T05:56:43;100687.44;;;10.53;54.70
23281;BME280;11809;56.390;-3.266;2022-12-15T05:59:10;100679.56;;;10.53;54.58
23281;BME280;11809;56.390;-3.266;2022-12-15T06:01:38;100675.22;;;10.52;54.64
23281;BME280;11809;56.390;-3.266;2022-12-15T06:04:05;100680.47;;;10.52;54.71
23281;BME280;11809;56.390;-3.266;2022-12-15T06:06:33;100676.97;;;10.52;55.01
23281;BME280;11809;56.390;-3.266;2022-12-15T06:09:00;100680.97;;;10.62;54.68
23281;BME280;11809;56.390;-3.266;2022-12-15T06:11:27;100686.72;;;10.71;54.70
23281;BME280;11809;56.390;-3.266;2022-12-15T06:13:54;100682.03;;;10.78;54.70
23281;BME280;11809;56.390;-3.266;2022-12-15T06:16:23;100681.81;;;10.84;54.67
23281;BME280;11809;56.390;-3.266;2022-12-15T06:18:58;100685.19;;;10.87;54.26
23281;BME280;11809;56.390;-3.266;2022-12-15T06:21:31;100693.72;;;10.92;54.20
23281;BME280;11809;56.390;-3.266;2022-12-15T06:24:02;100683.09;;;10.95;54.07
23281;BME280;11809;56.390;-3.266;2022-12-15T06:26:36;100684.78;;;10.96;54.55
23281;BME280;11809;56.390;-3.266;2022-12-15T06:29:06;100686.44;;;10.99;54.43
23281;BME280;11809;56.390;-3.266;2022-12-15T06:31:35;100682.88;;;11.00;54.55
23281;BME280;11809;56.390;-3.266;2022-12-15T06:34:04;100681.88;;;11.04;54.36
23281;BME280;11809;56.390;-3.266;2022-12-15T06:36:31;100696.59;;;11.08;54.60
23281;BME280;11809;56.390;-3.266;2022-12-15T06:39:03;100681.59;;;11.10;54.41
23281;BME280;11809;56.390;-3.266;2022-12-15T06:41:31;100693.63;;;11.16;54.82
23281;BME280;11809;56.390;-3.266;2022-12-15T06:43:58;100692.75;;;11.15;54.42
23281;BME280;11809;56.390;-3.266;2022-12-15T06:46:27;100687.50;;;11.15;53.99
23281;BME280;11809;56.390;-3.266;2022-12-15T06:48:55;100685.16;;;11.09;54.38
23281;BME280;11809;56.390;-3.266;2022-12-15T06:51:23;100700.94;;;11.09;54.16
23281;BME280;11809;56.390;-3.266;2022-12-15T06:53:51;100698.34;;;11.08;54.27
23281;BME280;11809;56.390;-3.266;2022-12-15T06:58:59;100709.94;;;11.04;54.16
23281;BME280;11809;56.390;-3.266;2022-12-15T07:01:27;100707.34;;;11.02;54.21
23281;BME280;11809;56.390;-3.266;2022-12-15T07:03:55;100709.97;;;11.02;54.63
23281;BME280;11809;56.390;-3.266;2022-12-15T07:06:23;100710.91;;;11.01;54.55
23281;BME280;11809;56.390;-3.266;2022-12-15T07:08:51;100707.41;;;11.01;54.73
23281;BME280;11809;56.390;-3.266;2022-12-15T07:11:21;100706.56;;;11.00;54.57
23281;BME280;11809;56.390;-3.266;2022-12-15T07:13:49;100708.94;;;11.06;54.86
23281;BME280;11809;56.390;-3.266;2022-12-15T07:16:17;100706.13;;;11.11;54.57
23281;BME280;11809;56.390;-3.266;2022-12-15T07:18:44;100711.06;;;11.18;54.73
23281;BME280;11809;56.390;-3.266;2022-12-15T07:21:12;100711.72;;;11.23;54.62
23281;BME280;11809;56.390;-3.266;2022-12-15T07:23:38;100716.97;;;11.23;54.10
23281;BME280;11809;56.390;-3.266;2022-12-15T07:26:20;100727.13;;;11.12;54.03
23281;BME280;11809;56.390;-3.266;2022-12-15T07:28:47;100735.47;;;11.00;53.53
23281;BME280;11809;56.390;-3.266;2022-12-15T07:31:14;100741.13;;;10.91;53.82
23281;BME280;11809;56.390;-3.266;2022-12-15T07:33:42;100759.88;;;10.82;54.09
23281;BME280;11809;56.390;-3.266;2022-12-15T07:36:09;100757.44;;;10.77;54.08
23281;BME280;11809;56.390;-3.266;2022-12-15T07:38:36;100753.28;;;10.72;54.45
23281;BME280;11809;56.390;-3.266;2022-12-15T07:41:05;100753.41;;;10.69;54.66
23281;BME280;11809;56.390;-3.266;2022-12-15T07:43:33;100757.88;;;10.67;54.63
23281;BME280;11809;56.390;-3.266;2022-12-15T07:46:01;100749.22;;;10.63;54.64
23281;BME280;11809;56.390;-3.266;2022-12-15T07:48:29;100759.75;;;10.63;54.77
23281;BME280;11809;56.390;-3.266;2022-12-15T07:50:57;100761.63;;;10.60;54.99
23281;BME280;11809;56.390;-3.266;2022-12-15T07:53:36;100760.75;;;10.59;54.93
23281;BME280;11809;56.390;-3.266;2022-12-15T07:56:05;100763.47;;;10.58;55.29
23281;BME280;11809;56.390;-3.266;2022-12-15T07:58:35;100774.09;;;10.55;55.14
23281;BME280;11809;56.390;-3.266;2022-12-15T08:01:05;100775.84;;;10.54;55.27
23281;BME280;11809;56.390;-3.266;2022-12-15T08:03:34;100777.66;;;10.54;55.26
23281;BME280;11809;56.390;-3.266;2022-12-15T08:06:04;100777.69;;;10.52;55.35
23281;BME280;11809;56.390;-3.266;2022-12-15T08:08:32;100784.69;;;10.52;55.19
23281;BME280;11809;56.390;-3.266;2022-12-15T08:11:05;100789.97;;;10.52;55.55
23281;BME280;11809;56.390;-3.266;2022-12-15T08:13:33;100789.16;;;10.50;55.49
23281;BME280;11809;56.390;-3.266;2022-12-15T08:16:24;100791.78;;;10.50;55.53
23281;BME280;11809;56.390;-3.266;2022-12-15T08:18:52;100797.16;;;10.47;55.66
23281;BME280;11809;56.390;-3.266;2022-12-15T08:21:19;100790.13;;;10.47;55.57
23281;BME280;11809;56.390;-3.266;2022-12-15T08:23:46;100795.47;;;10.46;55.44
23281;BME280;11809;56.390;-3.266;2022-12-15T08:26:16;100798.09;;;10.46;55.53
23281;BME280;11809;56.390;-3.266;2022-12-15T08:28:49;100802.53;;;10.44;55.74
23281;BME280;11809;56.390;-3.266;2022-12-15T08:31:18;100806.09;;;10.43;56.01
23281;BME280;11809;56.390;-3.266;2022-12-15T08:33:47;100808.59;;;10.46;55.75
23281;BME280;11809;56.390;-3.266;2022-12-15T08:36:16;100810.13;;;10.51;55.66
23281;BME280;11809;56.390;-3.266;2022-12-15T08:38:45;100823.09;;;10.56;55.81
23281;BME280;11809;56.390;-3.266;2022-12-15T08:41:21;100825.34;;;10.66;55.31
23281;BME280;11809;56.390;-3.266;2022-12-15T08:43:55;100816.38;;;10.72;55.38
23281;BME280;11809;56.390;-3.266;2022-12-15T08:46:26;100831.09;;;10.76;55.15
23281;BME280;11809;56.390;-3.266;2022-12-15T08:48:54;100827.44;;;10.80;55.21
23281;BME280;11809;56.390;-3.266;2022-12-15T08:51:25;100830.78;;;10.83;54.91
23281;BME280;11809;56.390;-3.266;2022-12-15T08:53:55;100837.66;;;10.87;55.06
23281;BME280;11809;56.390;-3.266;2022-12-15T08:56:25;100842.81;;;10.90;54.88
23281;BME280;11809;56.390;-3.266;2022-12-15T08:58:56;100846.22;;;10.92;54.76
23281;BME280;11809;56.390;-3.266;2022-12-15T09:01:25;100851.31;;;10.97;54.91
23281;BME280;11809;56.390;-3.266;2022-12-15T09:03:55;100850.28;;;11.01;54.68
23281;BME280;11809;56.390;-3.266;2022-12-15T09:06:25;100849.22;;;11.05;54.83
23281;BME280;11809;56.390;-3.266;2022-12-15T09:09:00;100863.13;;;11.09;54.91
23281;BME280;11809;56.390;-3.266;2022-12-15T09:11:29;100862.16;;;11.11;54.62
23281;BME280;11809;56.390;-3.266;2022-12-15T09:13:57;100865.53;;;11.15;54.53
23281;BME280;11809;56.390;-3.266;2022-12-15T09:16:25;100868.88;;;11.18;54.74
23281;BME280;11809;56.390;-3.266;2022-12-15T09:18:56;100860.06;;;11.19;54.75
23281;BME280;11809;56.390;-3.266;2022-12-15T09:21:26;100869.69;;;11.20;54.47
23281;BME280;11809;56.390;-3.266;2022-12-15T09:23:56;100871.50;;;11.18;54.46
23281;BME280;11809;56.390;-3.266;2022-12-15T09:26:28;100876.72;;;11.20;54.28
23281;BME280;11809;56.390;-3.266;2022-12-15T09:28:58;100876.06;;;11.15;54.62
23281;BME280;11809;56.390;-3.266;2022-12-15T09:31:31;100874.97;;;11.20;54.46
23281;BME280;11809;56.390;-3.266;2022-12-15T09:34:00;100873.91;;;11.24;54.30
23281;BME280;11809;56.390;-3.266;2022-12-15T09:36:28;100884.31;;;11.27;54.26
23281;BME280;11809;56.390;-3.266;2022-12-15T09:39:00;100887.72;;;11.29;54.51
23281;BME280;11809;56.390;-3.266;2022-12-15T09:41:34;100887.69;;;11.31;54.20
23281;BME280;11809;56.390;-3.266;2022-12-15T09:44:09;100881.44;;;11.33;54.31
23281;BME280;11809;56.390;-3.266;2022-12-15T09:52:05;100907.38;;;11.42;54.25
23281;BME280;11809;56.390;-3.266;2022-12-15T09:54:37;100913.63;;;11.40;54.02
23281;BME280;11809;56.390;-3.266;2022-12-15T09:57:12;100904.31;;;11.31;53.99
23281;BME280;11809;56.390;-3.266;2022-12-15T10:02:38;100913.13;;;11.30;54.01
23281;BME280;11809;56.390;-3.266;2022-12-15T10:08:42;100915.69;;;11.32;53.96
23281;BME280;11809;56.390;-3.266;2022-12-15T10:11:17;100902.50;;;11.33;53.58
23281;BME280;11809;56.390;-3.266;2022-12-15T10:19:15;100903.09;;;11.40;53.61
23281;BME280;11809;56.390;-3.266;2022-12-15T10:21:47;100917.00;;;11.43;53.81
23281;BME280;11809;56.390;-3.266;2022-12-15T10:24:21;100918.13;;;11.60;54.13
23281;BME280;11809;56.390;-3.266;2022-12-15T10:27:50;100924.63;;;11.73;53.68
23281;BME280;11809;56.390;-3.266;2022-12-15T10:30:21;100927.84;;;11.79;53.63
23281;BME280;11809;56.390;-3.266;2022-12-15T10:32:50;100926.63;;;11.88;54.05
23281;BME280;11809;56.390;-3.266;2022-12-15T10:35:34;100934.22;;;11.95;53.86
23281;BME280;11809;56.390;-3.266;2022-12-15T10:38:06;100930.31;;;12.05;53.84
23281;BME280;11809;56.390;-3.266;2022-12-15T10:43:34;100928.66;;;12.23;54.13
23281;BME280;11809;56.390;-3.266;2022-12-15T10:46:12;100924.84;;;12.30;53.93
23281;BME280;11809;56.390;-3.266;2022-12-15T10:48:42;100920.09;;;12.38;53.86
23281;BME280;11809;56.390;-3.266;2022-12-15T10:51:30;100915.34;;;12.46;54.18
23281;BME280;11809;56.390;-3.266;2022-12-15T10:56:28;100917.47;;;12.58;53.86
23281;BME280;11809;56.390;-3.266;2022-12-15T11:01:49;100920.41;;;12.71;53.55
23281;BME280;11809;56.390;-3.266;2022-12-15T11:06:58;100922.81;;;12.75;51.93
23281;BME280;11809;56.390;-3.266;2022-12-15T11:11:55;100932.38;;;12.78;52.40
23281;BME280;11809;56.390;-3.266;2022-12-15T11:14:45;100935.44;;;12.69;52.28
23281;BME280;11809;56.390;-3.266;2022-12-15T11:17:19;100936.19;;;12.52;52.22
23281;BME280;11809;56.390;-3.266;2022-12-15T11:19:49;100930.44;;;12.43;52.33
23281;BME280;11809;56.390;-3.266;2022-12-15T11:27:43;100937.09;;;12.31;52.32
23281;BME280;11809;56.390;-3.266;2022-12-15T11:30:23;100941.25;;;12.37;52.51
23281;BME280;11809;56.390;-3.266;2022-12-15T11:32:54;100950.06;;;12.36;52.47
23281;BME280;11809;56.390;-3.266;2022-12-15T11:40:45;100932.34;;;12.59;52.39
23281;BME280;11809;56.390;-3.266;2022-12-15T11:47:12;100941.53;;;12.90;52.61
23281;BME280;11809;56.390;-3.266;2022-12-15T11:55:52;100937.69;;;13.17;51.98
23281;BME280;11809;56.390;-3.266;2022-12-15T11:58:48;100942.53;;;13.26;52.01
23281;BME280;11809;56.390;-3.266;2022-12-15T12:04:24;100931.03;;;13.46;51.67
23281;BME280;11809;56.390;-3.266;2022-12-15T12:07:02;100932.41;;;13.54;51.67
23281;BME280;11809;56.390;-3.266;2022-12-15T12:09:46;100935.66;;;13.59;51.35
23281;BME280;11809;56.390;-3.266;2022-12-15T12:12:26;100941.63;;;13.63;50.54
23281;BME280;11809;56.390;-3.266;2022-12-15T12:20:46;100928.72;;;13.75;50.81
23281;BME280;11809;56.390;-3.266;2022-12-15T12:23:17;100935.53;;;13.79;50.67
23281;BME280;11809;56.390;-3.266;2022-12-15T12:26:23;100939.69;;;13.85;50.46
23281;BME280;11809;56.390;-3.266;2022-12-15T12:34:21;100931.63;;;14.05;50.80
23281;BME280;11809;56.390;-3.266;2022-12-15T12:36:57;100934.03;;;14.10;50.65
23281;BME280;11809;56.390;-3.266;2022-12-15T12:39:28;100923.19;;;14.16;50.67
23281;BME280;11809;56.390;-3.266;2022-12-15T12:42:08;100932.56;;;14.21;50.35
23281;BME280;11809;56.390;-3.266;2022-12-15T12:44:39;100935.84;;;14.26;50.09
23281;BME280;11809;56.390;-3.266;2022-12-15T12:47:18;100942.91;;;14.26;49.56
23281;BME280;11809;56.390;-3.266;2022-12-15T12:49:52;100948.97;;;14.28;49.86
23281;BME280;11809;56.390;-3.266;2022-12-15T12:52:33;100945.41;;;14.29;49.69
23281;BME280;11809;56.390;-3.266;2022-12-15T12:55:03;100937.34;;;14.32;49.97
23281;BME280;11809;56.390;-3.266;2022-12-15T12:57:41;100935.50;;;14.34;50.03
23281;BME280;11809;56.390;-3.266;2022-12-15T13:05:32;100939.38;;;14.44;50.12
23281;BME280;11809;56.390;-3.266;2022-12-15T13:10:40;100933.84;;;14.31;49.46
23281;BME280;11809;56.390;-3.266;2022-12-15T13:18:55;100935.94;;;14.42;50.17
23281;BME280;11809;56.390;-3.266;2022-12-15T13:32:36;100916.84;;;14.70;50.57
23281;BME280;11809;56.390;-3.266;2022-12-15T13:38:07;100917.13;;;14.81;50.80
23281;BME280;11809;56.390;-3.266;2022-12-15T13:45:58;100916.56;;;14.91;50.11
23281;BME280;11809;56.390;-3.266;2022-12-15T13:48:30;100919.75;;;14.98;50.12
23281;BME280;11809;56.390;-3.266;2022-12-15T13:54:36;100916.75;;;15.04;49.99
23281;BME280;11809;56.390;-3.266;2022-12-15T13:56:51;100911.38;;;15.05;49.77
23281;BME280;11809;56.390;-3.266;2022-12-15T14:02:00;100911.38;;;15.05;49.28
23281;BME280;11809;56.390;-3.266;2022-12-15T14:04:27;100918.56;;;15.03;49.23
23281;BME280;11809;56.390;-3.266;2022-12-15T14:06:57;100918.63;;;15.02;48.84
23281;BME280;11809;56.390;-3.266;2022-12-15T14:09:37;100914.25;;;15.01;48.86
23281;BME280;11809;56.390;-3.266;2022-12-15T14:12:07;100906.31;;;15.01;49.13
23281;BME280;11809;56.390;-3.266;2022-12-15T14:14:44;100921.44;;;14.99;49.04
23281;BME280;11809;56.390;-3.266;2022-12-15T14:17:16;100919.81;;;14.96;48.96
23281;BME280;11809;56.390;-3.266;2022-12-15T14:19:46;100923.41;;;14.95;49.14
23281;BME280;11809;56.390;-3.266;2022-12-15T14:22:23;100919.06;;;14.94;49.22
23281;BME280;11809;56.390;-3.266;2022-12-15T14:25:12;100917.31;;;14.93;49.07
23281;BME280;11809;56.390;-3.266;2022-12-15T14:27:40;100927.25;;;14.90;49.06
23281;BME280;11809;56.390;-3.266;2022-12-15T14:30:18;100921.09;;;14.89;49.16
23281;BME280;11809;56.390;-3.266;2022-12-15T14:32:49;100923.78;;;14.88;49.09
23281;BME280;11809;56.390;-3.266;2022-12-15T14:35:39;100919.72;;;14.82;48.93
23281;BME280;11809;56.390;-3.266;2022-12-15T14:38:17;100926.00;;;14.80;48.51
23281;BME280;11809;56.390;-3.266;2022-12-15T14:40:48;100918.31;;;14.75;48.59
23281;BME280;11809;56.390;-3.266;2022-12-15T14:43:23;100925.47;;;14.73;48.78
23281;BME280;11809;56.390;-3.266;2022-12-15T14:48:44;100911.59;;;14.85;48.92
23281;BME280;11809;56.390;-3.266;2022-12-15T14:51:16;100916.31;;;14.63;45.31
23281;BME280;11809;56.390;-3.266;2022-12-15T14:53:48;100917.44;;;14.42;45.37
23281;BME280;11809;56.390;-3.266;2022-12-15T14:59:17;100918.97;;;14.63;47.74
23281;BME280;11809;56.390;-3.266;2022-12-15T15:02:19;100923.00;;;14.70;48.60
23281;BME280;11809;56.390;-3.266;2022-12-15T15:05:01;100926.19;;;14.77;48.54
23281;BME280;11809;56.390;-3.266;2022-12-15T15:07:34;100923.91;;;14.69;49.04
23281;BME280;11809;56.390;-3.266;2022-12-15T15:10:20;100934.19;;;14.75;49.34
23281;BME280;11809;56.390;-3.266;2022-12-15T15:12:51;100934.19;;;14.75;48.42
23281;BME280;11809;56.390;-3.266;2022-12-15T15:15:20;100933.13;;;14.62;48.03
23281;BME280;11809;56.390;-3.266;2022-12-15T15:17:56;100941.06;;;14.62;47.86
23281;BME280;11809;56.390;-3.266;2022-12-15T15:20:27;100940.28;;;14.60;48.54
23281;BME280;11809;56.390;-3.266;2022-12-15T15:23:17;100937.50;;;14.63;48.64
23281;BME280;11809;56.390;-3.266;2022-12-15T15:25:57;100934.75;;;14.65;48.96
23281;BME280;11809;56.390;-3.266;2022-12-15T15:28:41;100939.13;;;14.66;48.88
23281;BME280;11809;56.390;-3.266;2022-12-15T15:31:34;100933.72;;;14.67;48.90
23281;BME280;11809;56.390;-3.266;2022-12-15T15:34:07;100933.56;;;14.70;49.09
23281;BME280;11809;56.390;-3.266;2022-12-15T15:36:36;100937.00;;;14.72;49.12
23281;BME280;11809;56.390;-3.266;2022-12-15T15:39:14;100943.22;;;14.71;48.91
23281;BME280;11809;56.390;-3.266;2022-12-15T15:41:42;100938.78;;;14.72;49.00
23281;BME280;11809;56.390;-3.266;2022-12-15T15:44:14;100947.41;;;14.75;49.40
23281;BME280;11809;56.390;-3.266;2022-12-15T15:46:48;100944.63;;;14.78;49.52
23281;BME280;11809;56.390;-3.266;2022-12-15T15:49:18;100947.00;;;14.83;49.29